createdAt,value
2022-09-27T00:01:47.548Z,21.00
2022-09-27T00:04:14.553Z,20.50
2022-09-27T00:06:41.539Z,20.00
2022-09-27T00:09:08.559Z,20.00
2022-09-27T00:11:37.269Z,20.50
2022-09-27T00:14:04.435Z,20.00
2022-09-27T00:16:33.620Z,20.75
2022-09-27T00:19:01.842Z,21.50
2022-09-27T00:21:30.297Z,19.50
2022-09-27T00:23:57.679Z,21.00
2022-09-27T00:26:24.643Z,20.75
2022-09-27T00:28:51.912Z,19.75
2022-09-27T00:31:23.939Z,20.00
2022-09-27T00:33:52.126Z,20.00
2022-09-27T00:36:19.941Z,20.00
2022-09-27T00:38:47.231Z,20.00
2022-09-27T00:41:17.010Z,17.75
2022-09-27T00:43:49.622Z,20.00
2022-09-27T00:46:21.798Z,19.25
2022-09-27T00:48:49.005Z,21.00
2022-09-27T00:51:16.466Z,18.25
2022-09-27T00:53:46.798Z,20.00
2022-09-27T00:56:17.362Z,20.00
2022-09-27T00:58:47.055Z,20.25
2022-09-27T01:01:14.473Z,20.00
2022-09-27T01:03:50.079Z,17.50
2022-09-27T01:06:17.635Z,18.75
2022-09-27T01:09:07.249Z,18.50
2022-09-27T01:12:07.178Z,18.75
2022-09-27T01:15:33.007Z,19.50
2022-09-27T01:18:22.411Z,20.00
2022-09-27T01:21:41.851Z,19.00
2022-09-27T01:24:29.737Z,20.00
2022-09-27T01:27:06.171Z,19.00
2022-09-27T01:29:33.803Z,19.75
2022-09-27T01:32:08.632Z,18.75
2022-09-27T01:35:03.480Z,19.00
2022-09-27T01:38:07.564Z,20.00
2022-09-27T01:40:57.106Z,19.50
2022-09-27T01:43:55.931Z,19.00
2022-09-27T01:46:32.456Z,18.50
2022-09-27T01:48:59.475Z,19.50
2022-09-27T01:51:31.201Z,18.25
2022-09-27T01:54:00.317Z,19.00
2022-09-27T01:56:31.224Z,16.25
2022-09-27T01:59:07.590Z,17.00
2022-09-27T02:01:34.732Z,17.00
2022-09-27T02:04:02.135Z,20.00
2022-09-27T02:06:36.277Z,16.75
2022-09-27T02:09:09.586Z,18.00
2022-09-27T02:11:39.268Z,17.25
2022-09-27T02:14:16.133Z,17.00
2022-09-27T02:16:58.272Z,18.25
2022-09-27T02:19:46.466Z,19.00
2022-09-27T02:22:19.044Z,18.00
2022-09-27T02:24:54.986Z,16.25
2022-09-27T02:27:27.742Z,18.25
2022-09-27T02:30:13.609Z,20.00
2022-09-27T02:32:40.598Z,19.00
2022-09-27T02:35:23.360Z,13.25
2022-09-27T02:37:50.291Z,17.25
2022-09-27T02:40:17.533Z,19.00
2022-09-27T02:42:44.564Z,18.00
2022-09-27T02:45:12.312Z,17.00
2022-09-27T02:47:57.704Z,18.00
2022-09-27T02:50:33.764Z,17.00
2022-09-27T02:53:12.802Z,17.25
2022-09-27T02:56:04.034Z,17.50
2022-09-27T02:58:43.320Z,19.00
2022-09-27T03:01:16.065Z,16.00
2022-09-27T03:03:53.762Z,9.00
2022-09-27T03:06:21.314Z,17.75
2022-09-27T03:08:48.329Z,18.00
2022-09-27T03:11:15.568Z,17.00
2022-09-27T03:14:06.917Z,17.75
2022-09-27T03:16:30.922Z,15.25
2022-09-27T03:18:57.925Z,17.50
2022-09-27T03:21:24.815Z,19.00
2022-09-27T03:23:51.767Z,16.25
2022-09-27T03:26:18.681Z,18.50
2022-09-27T03:28:45.663Z,18.00
2022-09-27T03:31:12.625Z,16.25
2022-09-27T03:33:39.593Z,18.00
2022-09-27T03:36:07.387Z,0.00
2022-09-27T03:38:34.350Z,14.25
2022-09-27T03:41:01.344Z,18.00
2022-09-27T03:43:28.344Z,17.75
2022-09-27T03:45:55.359Z,16.00
2022-09-27T03:48:25.832Z,16.00
2022-09-27T03:50:54.966Z,19.00
2022-09-27T03:53:21.941Z,15.75
2022-09-27T03:55:48.890Z,16.00
2022-09-27T03:58:15.945Z,14.50
2022-09-27T04:00:44.306Z,18.00
2022-09-27T04:03:12.350Z,18.00
2022-09-27T04:05:39.335Z,15.00
2022-09-27T04:08:11.278Z,15.50
2022-09-27T04:10:38.424Z,15.75
2022-09-27T04:13:05.725Z,15.00
2022-09-27T04:15:32.696Z,14.75
2022-09-27T04:17:59.664Z,15.75
2022-09-27T04:20:26.631Z,13.50
2022-09-27T04:22:53.608Z,15.75
2022-09-27T04:25:20.589Z,15.00
2022-09-27T04:27:48.564Z,17.75
2022-09-27T04:30:15.886Z,15.00
2022-09-27T04:32:43.733Z,15.00
2022-09-27T04:35:30.077Z,16.00
2022-09-27T04:37:57.218Z,15.50
2022-09-27T04:40:24.363Z,16.75
2022-09-27T04:42:51.889Z,17.00
2022-09-27T04:45:19.363Z,16.00
2022-09-27T04:47:46.974Z,16.00
2022-09-27T04:50:14.224Z,15.75
2022-09-27T04:52:41.244Z,16.75
2022-09-27T04:55:09.276Z,16.00
2022-09-27T04:57:36.333Z,3.00
2022-09-27T05:00:04.365Z,16.00
2022-09-27T05:02:31.724Z,15.50
2022-09-27T05:04:59.596Z,15.25
2022-09-27T05:07:27.142Z,15.25
2022-09-27T05:09:54.053Z,15.50
2022-09-27T05:12:21.288Z,16.50
2022-09-27T05:14:48.300Z,17.50
2022-09-27T05:17:15.273Z,15.25
2022-09-27T05:19:42.284Z,15.50
2022-09-27T05:22:09.199Z,15.50
2022-09-27T05:24:38.608Z,16.25
2022-09-27T05:27:08.435Z,15.00
2022-09-27T05:29:35.537Z,16.00
2022-09-27T05:32:02.755Z,16.00
2022-09-27T05:34:29.757Z,15.00
2022-09-27T05:36:56.677Z,7.25
2022-09-27T05:39:23.641Z,15.00
2022-09-27T05:44:22.389Z,16.25
2022-09-27T05:46:51.449Z,15.25
2022-09-27T05:49:18.428Z,16.25
2022-09-27T05:51:45.349Z,16.25
2022-09-27T05:54:12.307Z,15.00
2022-09-27T05:56:39.244Z,15.00
2022-09-27T05:59:06.292Z,12.25
2022-09-27T06:01:33.320Z,15.00
2022-09-27T06:04:00.271Z,15.00
2022-09-27T06:06:27.263Z,14.25
2022-09-27T06:08:54.282Z,16.75
2022-09-27T06:11:21.234Z,15.00
2022-09-27T06:13:48.169Z,13.75
2022-09-27T06:16:15.284Z,15.00
2022-09-27T06:18:43.086Z,13.50
2022-09-27T06:21:10.071Z,14.50
2022-09-27T06:23:37.515Z,16.00
2022-09-27T06:26:06.006Z,14.00
2022-09-27T06:28:35.718Z,16.00
2022-09-27T06:31:02.815Z,15.00
2022-09-27T06:33:29.831Z,16.00
2022-09-27T06:35:56.910Z,16.00
2022-09-27T06:38:25.148Z,16.00
2022-09-27T06:40:52.185Z,7.00
2022-09-27T06:43:20.781Z,15.00
2022-09-27T06:45:48.488Z,15.00
2022-09-27T06:48:17.626Z,14.25
2022-09-27T06:50:45.404Z,13.00
2022-09-27T06:53:14.100Z,12.00
2022-09-27T06:55:41.195Z,13.00
2022-09-27T06:58:26.815Z,15.00
2022-09-27T07:00:54.003Z,14.50
2022-09-27T07:03:23.205Z,15.00
2022-09-27T07:05:57.497Z,15.25
2022-09-27T07:08:26.722Z,15.00
2022-09-27T07:10:55.722Z,15.00
2022-09-27T07:13:22.706Z,15.00
2022-09-27T07:15:49.633Z,14.00
2022-09-27T07:18:16.616Z,13.00
2022-09-27T07:20:43.525Z,14.25
2022-09-27T07:23:10.987Z,13.75
2022-09-27T07:25:37.932Z,15.00
2022-09-27T07:28:09.925Z,14.00
2022-09-27T07:30:37.505Z,14.00
2022-09-27T07:33:05.389Z,14.50
2022-09-27T07:35:32.505Z,14.00
2022-09-27T07:37:59.582Z,13.25
2022-09-27T07:40:26.886Z,15.00
2022-09-27T07:42:57.237Z,6.00
2022-09-27T07:45:24.819Z,13.00
2022-09-27T07:47:51.731Z,13.00
2022-09-27T07:50:18.758Z,12.00
2022-09-27T07:52:47.369Z,12.00
2022-09-27T07:55:15.016Z,14.00
2022-09-27T07:57:42.051Z,14.00
2022-09-27T08:00:11.200Z,13.00
2022-09-27T08:02:38.175Z,13.50
2022-09-27T08:05:05.461Z,13.00
2022-09-27T08:07:33.156Z,14.00
2022-09-27T08:10:00.366Z,13.00
2022-09-27T08:12:27.339Z,12.00
2022-09-27T08:14:54.964Z,12.50
2022-09-27T08:17:21.935Z,11.00
2022-09-27T08:19:50.085Z,13.75
2022-09-27T08:22:17.100Z,13.00
2022-09-27T08:24:44.032Z,13.00
2022-09-27T08:27:12.153Z,13.00
2022-09-27T08:29:42.107Z,13.00
2022-09-27T08:32:10.046Z,9.50
2022-09-27T08:34:37.178Z,12.00
2022-09-27T08:37:04.312Z,11.25
2022-09-27T08:39:31.687Z,13.50
2022-09-27T08:42:03.918Z,12.75
2022-09-27T08:44:51.342Z,12.75
2022-09-27T08:47:19.035Z,12.25
2022-09-27T08:50:09.371Z,11.00
2022-09-27T08:52:41.590Z,13.00
2022-09-27T08:55:43.833Z,12.00
2022-09-27T08:58:32.401Z,11.75
2022-09-27T09:01:06.903Z,12.00
2022-09-27T09:03:38.468Z,11.25
2022-09-27T09:06:32.778Z,12.00
2022-09-27T09:09:33.503Z,9.25
2022-09-27T09:12:28.018Z,9.00
2022-09-27T09:15:13.157Z,10.75
2022-09-27T09:17:44.828Z,10.00
2022-09-27T09:20:17.665Z,0.00
2022-09-27T09:23:06.761Z,9.25
2022-09-27T09:26:27.800Z,10.00
2022-09-27T09:29:04.472Z,11.00
2022-09-27T09:31:52.065Z,11.00
2022-09-27T09:34:40.937Z,9.00
2022-09-27T09:37:31.390Z,11.00
2022-09-27T09:40:01.633Z,9.25
2022-09-27T09:42:31.699Z,10.50
2022-09-27T09:45:02.686Z,11.00
2022-09-27T09:47:37.139Z,11.00
2022-09-27T09:50:14.642Z,11.00
2022-09-27T09:52:44.359Z,5.25
2022-09-27T09:55:23.911Z,9.00
2022-09-27T09:58:03.093Z,10.75
2022-09-27T10:00:30.158Z,10.50
2022-09-27T10:03:01.760Z,10.25
2022-09-27T10:05:28.838Z,10.00
2022-09-27T10:08:01.164Z,9.00
2022-09-27T10:10:28.192Z,11.50
2022-09-27T10:12:55.434Z,9.50
2022-09-27T10:15:24.150Z,11.00
2022-09-27T10:17:53.803Z,9.75
2022-09-27T10:20:46.828Z,10.25
2022-09-27T10:23:16.391Z,8.00
2022-09-27T10:25:52.656Z,8.75
2022-09-27T10:28:39.854Z,9.75
2022-09-27T10:31:12.687Z,9.00
2022-09-27T10:34:00.037Z,9.25
2022-09-27T10:36:31.229Z,9.00
2022-09-27T10:39:00.913Z,9.75
2022-09-27T10:41:35.379Z,9.50
2022-09-27T10:44:20.255Z,9.00
2022-09-27T10:46:49.564Z,9.00
2022-09-27T10:49:26.203Z,7.00
2022-09-27T10:52:01.349Z,9.00
2022-09-27T10:54:32.639Z,9.50
2022-09-27T10:57:23.320Z,8.67
2022-09-27T10:59:56.756Z,8.00
2022-09-27T11:02:28.094Z,9.75
2022-09-27T11:05:15.767Z,10.00
2022-09-27T11:07:56.607Z,8.00
2022-09-27T11:10:31.149Z,9.00
2022-09-27T11:13:14.716Z,9.00
2022-09-27T11:15:56.704Z,8.00
2022-09-27T11:18:51.024Z,8.33
2022-09-27T11:21:41.729Z,9.00
2022-09-27T11:24:23.467Z,9.00
2022-09-27T11:27:00.855Z,8.50
2022-09-27T11:29:37.637Z,6.00
2022-09-27T11:32:35.425Z,9.25
2022-09-27T11:35:19.630Z,8.75
2022-09-27T11:38:34.564Z,8.25
2022-09-27T11:41:50.524Z,7.00
2022-09-27T11:44:35.592Z,8.00
2022-09-27T11:47:12.283Z,7.50
2022-09-27T11:50:00.216Z,8.00
2022-09-27T11:52:49.990Z,7.00
2022-09-27T11:55:38.294Z,8.00
2022-09-27T11:58:08.804Z,6.33
2022-09-27T12:00:45.329Z,7.00
2022-09-27T12:03:47.561Z,7.33
2022-09-27T12:06:21.411Z,7.33
2022-09-27T12:09:03.500Z,8.00
2022-09-27T12:11:44.403Z,8.00
2022-09-27T12:14:38.769Z,8.67
2022-09-27T12:17:30.060Z,6.67
2022-09-27T12:19:59.011Z,7.00
2022-09-27T12:22:57.027Z,7.00
2022-09-27T12:25:21.063Z,7.33
2022-09-27T12:28:02.695Z,8.00
2022-09-27T12:30:30.894Z,8.00
2022-09-27T12:33:18.899Z,8.00
2022-09-27T12:35:55.487Z,7.00
2022-09-27T12:39:12.647Z,6.00
2022-09-27T12:41:41.529Z,9.00
2022-09-27T12:44:10.701Z,7.00
2022-09-27T12:47:06.845Z,8.00
2022-09-27T12:49:43.533Z,6.67
2022-09-27T12:52:12.758Z,7.00
2022-09-27T12:54:55.132Z,6.67
2022-09-27T12:57:45.119Z,7.67
2022-09-27T13:00:15.372Z,8.00
2022-09-27T13:03:14.582Z,7.00
2022-09-27T13:06:13.648Z,8.00
2022-09-27T13:08:54.455Z,5.33
2022-09-27T13:11:26.959Z,6.67
2022-09-27T13:13:57.536Z,7.33
2022-09-27T13:16:25.798Z,6.33
2022-09-27T13:18:55.218Z,7.00
2022-09-27T13:21:51.331Z,7.33
2022-09-27T13:24:43.272Z,6.00
2022-09-27T13:27:28.425Z,5.67
2022-09-27T13:30:16.602Z,7.00
2022-09-27T13:33:14.351Z,6.33
2022-09-27T13:35:41.300Z,6.00
2022-09-27T13:38:21.744Z,6.33
2022-09-27T13:40:49.554Z,6.00
2022-09-27T13:43:41.790Z,5.67
2022-09-27T13:46:16.042Z,7.00
2022-09-27T13:48:50.919Z,6.00
2022-09-27T13:51:35.936Z,6.00
2022-09-27T13:54:47.805Z,5.33
2022-09-27T13:57:41.662Z,6.00
2022-09-27T14:00:31.780Z,5.00
2022-09-27T14:03:02.688Z,5.33
2022-09-27T14:05:48.045Z,7.00
2022-09-27T14:08:48.769Z,5.33
2022-09-27T14:11:28.047Z,9.00
2022-09-27T14:13:55.131Z,7.00
2022-09-27T14:16:22.331Z,8.00
2022-09-27T14:18:54.402Z,7.00
2022-09-27T14:21:38.015Z,10.00
2022-09-27T14:24:36.934Z,8.00
2022-09-27T14:27:17.790Z,9.00
2022-09-27T14:29:56.825Z,8.00
2022-09-27T14:32:25.606Z,8.50
2022-09-27T14:35:32.213Z,8.00
2022-09-27T14:38:15.812Z,6.00
2022-09-27T14:40:58.999Z,8.00
2022-09-27T14:43:26.080Z,7.00
2022-09-27T14:45:54.159Z,8.00
2022-09-27T14:48:22.440Z,8.00
2022-09-27T14:51:01.272Z,7.00
2022-09-27T14:53:35.717Z,7.33
2022-09-27T14:56:03.104Z,8.00
2022-09-27T14:58:46.560Z,8.00
2022-09-27T15:01:17.688Z,8.67
2022-09-27T15:03:44.950Z,7.67
2022-09-27T15:06:11.974Z,8.00
2022-09-27T15:08:39.083Z,9.00
2022-09-27T15:11:07.803Z,8.00
2022-09-27T15:13:37.526Z,9.00
2022-09-27T15:16:20.292Z,9.33
2022-09-27T15:18:48.866Z,9.33
2022-09-27T15:21:36.927Z,9.00
2022-09-27T15:24:04.085Z,8.00
2022-09-27T15:26:36.138Z,9.00
2022-09-27T15:29:03.287Z,7.00
2022-09-27T15:31:31.817Z,8.33
2022-09-27T15:33:59.327Z,8.00
2022-09-27T15:36:44.789Z,7.00
2022-09-27T15:39:12.727Z,7.33
2022-09-27T15:42:17.813Z,8.00
2022-09-27T15:44:48.669Z,8.00
2022-09-27T15:47:39.261Z,6.00
2022-09-27T15:50:15.394Z,7.00
2022-09-27T15:52:45.436Z,7.00
2022-09-27T15:55:13.082Z,7.33
2022-09-27T15:57:40.937Z,7.00
2022-09-27T16:00:12.739Z,8.33
2022-09-27T16:02:39.691Z,12.00
2022-09-27T16:05:07.157Z,15.50
2022-09-27T16:07:34.285Z,16.25
2022-09-27T16:10:01.244Z,18.00
2022-09-27T16:12:30.482Z,18.25
2022-09-27T16:14:57.454Z,19.75
2022-09-27T16:17:24.366Z,20.00
2022-09-27T16:19:51.320Z,20.00
2022-09-27T16:22:18.304Z,20.25
2022-09-27T16:24:45.922Z,20.00
2022-09-27T16:27:12.914Z,22.25
2022-09-27T16:29:43.630Z,22.00
2022-09-27T16:32:11.304Z,20.50
2022-09-27T16:34:38.417Z,23.00
2022-09-27T16:37:07.401Z,22.75
2022-09-27T16:39:34.340Z,23.00
2022-09-27T16:42:05.210Z,24.00
2022-09-27T16:44:34.449Z,22.75
2022-09-27T16:47:01.675Z,24.50
2022-09-27T16:49:47.957Z,26.00
2022-09-27T16:52:16.356Z,27.25
2022-09-27T16:54:43.363Z,27.50
2022-09-27T16:57:10.397Z,28.50
2022-09-27T16:59:37.543Z,30.75
2022-09-27T17:02:05.837Z,33.00
2022-09-27T17:04:32.802Z,33.00
2022-09-27T17:06:59.794Z,35.00
2022-09-27T17:09:26.776Z,38.25
2022-09-27T17:11:53.736Z,40.00
2022-09-27T17:14:20.891Z,45.33
2022-09-27T17:16:47.920Z,47.33
2022-09-27T17:19:15.828Z,51.00
2022-09-27T17:21:43.786Z,53.33
2022-09-27T17:24:10.930Z,50.00
2022-09-27T17:26:37.893Z,51.67
2022-09-27T17:29:04.854Z,52.00
2022-09-27T17:31:33.759Z,55.00
2022-09-27T17:34:00.917Z,54.00
2022-09-27T17:36:30.001Z,51.67
2022-09-27T17:38:58.714Z,53.33
2022-09-27T17:41:26.015Z,50.33
2022-09-27T17:43:55.026Z,53.33
2022-09-27T17:46:23.347Z,51.33
2022-09-27T17:49:08.958Z,53.00
2022-09-27T17:51:37.837Z,63.33
2022-09-27T17:54:05.318Z,68.75
2022-09-27T17:56:34.979Z,74.25
2022-09-27T17:59:01.926Z,75.00
2022-09-27T18:01:29.000Z,74.00
2022-09-27T18:03:57.046Z,75.50
2022-09-27T18:06:24.450Z,79.00
2022-09-27T18:08:51.503Z,81.00
2022-09-27T18:11:22.369Z,81.50
2022-09-27T18:13:49.398Z,83.00
2022-09-27T18:16:17.976Z,81.50
2022-09-27T18:18:48.390Z,80.25
2022-09-27T18:21:16.822Z,81.75
2022-09-27T18:23:44.539Z,80.25
2022-09-27T18:26:11.977Z,82.50
2022-09-27T18:28:41.035Z,80.25
2022-09-27T18:33:57.994Z,81.75
2022-09-27T18:36:26.103Z,79.75
2022-09-27T18:38:55.058Z,81.50
2022-09-27T18:41:22.864Z,79.75
2022-09-27T18:43:55.474Z,79.75
2022-09-27T18:46:35.373Z,78.50
2022-09-27T18:49:04.262Z,76.50
2022-09-27T18:51:31.297Z,76.75
2022-09-27T18:54:02.543Z,77.75
2022-09-27T18:56:29.729Z,75.75
2022-09-27T18:58:56.938Z,75.25
2022-09-27T19:01:24.624Z,71.50
2022-09-27T19:03:51.868Z,69.00
2022-09-27T19:06:20.394Z,63.75
2022-09-27T19:08:47.455Z,69.50
2022-09-27T19:11:15.723Z,74.00
2022-09-27T19:13:50.887Z,64.33
2022-09-27T19:16:21.041Z,67.33
2022-09-27T19:18:48.182Z,66.67
2022-09-27T19:21:17.262Z,66.75
2022-09-27T19:23:44.363Z,66.50
2022-09-27T19:26:15.847Z,65.00
2022-09-27T19:28:44.226Z,63.33
2022-09-27T19:31:13.762Z,61.33
2022-09-27T19:33:40.716Z,64.67
2022-09-27T19:36:09.817Z,61.67
2022-09-27T19:38:37.277Z,64.00
2022-09-27T19:41:05.548Z,62.00
2022-09-27T19:43:32.580Z,64.00
2022-09-27T19:46:06.749Z,63.33
2022-09-27T19:48:33.780Z,58.67
2022-09-27T19:51:01.097Z,61.67
2022-09-27T19:53:31.913Z,60.33
2022-09-27T19:56:03.241Z,59.33
2022-09-27T19:58:30.548Z,61.00
2022-09-27T20:01:07.159Z,58.67
2022-09-27T20:03:34.957Z,60.00
2022-09-27T20:06:02.215Z,59.00
2022-09-27T20:08:29.485Z,59.67
2022-09-27T20:11:06.393Z,54.67
2022-09-27T20:13:34.318Z,55.00
2022-09-27T20:16:17.459Z,55.00
2022-09-27T20:18:46.025Z,50.67
2022-09-27T20:21:13.099Z,59.00
2022-09-27T20:23:40.121Z,54.00
2022-09-27T20:26:14.132Z,54.33
2022-09-27T20:28:47.918Z,56.33
2022-09-27T20:31:16.860Z,53.33
2022-09-27T20:33:44.926Z,54.00
2022-09-27T20:36:12.816Z,53.00
2022-09-27T20:38:44.563Z,51.33
2022-09-27T20:41:12.360Z,53.00
2022-09-27T20:43:39.642Z,51.67
2022-09-27T20:46:08.221Z,54.33
2022-09-27T20:48:35.231Z,54.00
2022-09-27T20:51:04.675Z,52.67
2022-09-27T20:53:32.155Z,49.67
2022-09-27T20:55:59.795Z,47.00
2022-09-27T20:58:26.852Z,51.33
2022-09-27T21:00:53.863Z,51.33
2022-09-27T21:03:21.894Z,44.67
2022-09-27T21:05:56.140Z,47.00
2022-09-27T21:08:23.452Z,51.00
2022-09-27T21:10:52.887Z,46.33
2022-09-27T21:13:20.103Z,48.00
2022-09-27T21:15:47.423Z,47.67
2022-09-27T21:18:14.459Z,44.75
2022-09-27T21:20:41.404Z,41.00
2022-09-27T21:23:08.381Z,46.00
2022-09-27T21:25:35.326Z,43.00
2022-09-27T21:28:04.444Z,44.25
2022-09-27T21:30:31.644Z,44.25
2022-09-27T21:32:58.664Z,43.50
2022-09-27T21:35:25.568Z,44.25
2022-09-27T21:37:52.611Z,44.00
2022-09-27T21:40:19.963Z,42.75
2022-09-27T21:42:52.397Z,41.75
2022-09-27T21:45:22.613Z,40.75
2022-09-27T21:47:49.532Z,43.50
2022-09-27T21:50:16.663Z,42.25
2022-09-27T21:52:43.603Z,43.50
2022-09-27T21:55:10.570Z,42.00
2022-09-27T21:57:37.531Z,40.00
2022-09-27T22:00:04.897Z,38.00
2022-09-27T22:02:31.923Z,40.50
2022-09-27T22:04:59.876Z,40.25
2022-09-27T22:07:26.881Z,39.00
2022-09-27T22:09:53.823Z,39.25
2022-09-27T22:12:21.623Z,40.50
2022-09-27T22:14:48.621Z,38.25
2022-09-27T22:17:15.615Z,37.75
2022-09-27T22:19:42.566Z,39.00
2022-09-27T22:22:09.514Z,39.00
2022-09-27T22:24:36.507Z,39.00
2022-09-27T22:27:03.860Z,36.75
2022-09-27T22:29:32.124Z,37.75
2022-09-27T22:32:00.141Z,38.25
2022-09-27T22:34:31.752Z,35.00
2022-09-27T22:36:59.147Z,37.00
2022-09-27T22:39:26.178Z,37.00
2022-09-27T22:41:53.116Z,36.00
2022-09-27T22:44:20.383Z,37.25
2022-09-27T22:46:47.728Z,38.00
2022-09-27T22:49:14.780Z,36.50
2022-09-27T22:51:41.762Z,37.00
2022-09-27T22:54:08.729Z,35.25
2022-09-27T22:56:35.708Z,35.25
2022-09-27T22:59:02.713Z,35.75
2022-09-27T23:01:29.729Z,36.25
2022-09-27T23:03:57.393Z,36.00
2022-09-27T23:06:24.432Z,37.00
2022-09-27T23:08:51.714Z,35.00
2022-09-27T23:11:20.724Z,36.00
2022-09-27T23:13:48.459Z,34.50
2022-09-27T23:16:17.294Z,34.25
2022-09-27T23:18:44.712Z,35.00
2022-09-27T23:21:12.867Z,35.00
2022-09-27T23:23:41.512Z,34.25
2022-09-27T23:26:10.899Z,35.00
2022-09-27T23:28:38.048Z,34.25
2022-09-27T23:31:09.393Z,34.00
2022-09-27T23:33:40.700Z,33.25
2022-09-27T23:36:09.018Z,35.25
2022-09-27T23:38:36.594Z,33.75
2022-09-27T23:41:03.580Z,34.25
2022-09-27T23:43:30.601Z,34.00
2022-09-27T23:45:57.626Z,34.25
2022-09-27T23:48:27.975Z,34.75
2022-09-27T23:50:54.919Z,32.50
2022-09-27T23:53:22.079Z,33.25
2022-09-27T23:55:50.218Z,31.25
2022-09-27T23:58:17.695Z,34.00
